Time;durP1;ratioP1;P1;durP2;ratioP2;P2;SDS_P1;SDS_P2;PMS_P1;PMS_P2;Temp;Humidity;BMP_temperature;BMP_pressure;BME280_temperature;BME280_humidity;BME280_pressure;Samples;Min_cycle;Max_cycle;Signal;HPM_P1;HPM_P2
2022/01/03 00:00:19;;;;;;;8.68;5.95;;;;;;;8.25;85.69;100076.63;5011719;28;20026;-90
2022/01/03 00:02:46;;;;;;;5.75;4.95;;;;;;;8.17;85.90;100070.56;5003019;28;20104;-90
2022/01/03 00:05:12;;;;;;;6.22;5.03;;;;;;;8.26;85.62;100090.59;5010608;28;20402;-90
2022/01/03 00:07:40;;;;;;;6.18;5.68;;;;;;;8.26;85.68;100090.59;5010924;28;20093;-90
2022/01/03 00:10:07;;;;;;;5.57;4.80;;;;;;;8.15;85.88;100074.94;5010640;28;20120;-90
2022/01/03 00:12:33;;;;;;;6.60;6.00;;;;;;;8.26;85.48;100090.59;5024655;28;20037;-90
2022/01/03 00:14:59;;;;;;;5.22;4.72;;;;;;;8.23;85.60;100081.00;5011100;28;20027;-90
2022/01/03 00:17:25;;;;;;;5.55;5.05;;;;;;;8.20;85.52;100073.13;5012315;28;20030;-90
2022/01/03 00:19:51;;;;;;;6.15;4.72;;;;;;;8.29;85.48;100067.81;5012581;28;20036;-90
2022/01/03 00:22:27;;;;;;;5.00;4.55;;;;;;;8.28;85.55;100063.47;5010223;28;20085;-89
2022/01/03 00:25:01;;;;;;;5.57;4.90;;;;;;;8.19;85.42;100053.00;5010724;28;20030;-90
2022/01/03 00:27:38;;;;;;;5.93;4.68;;;;;;;8.27;85.29;100059.06;5030628;28;20072;-90
2022/01/03 00:30:05;;;;;;;5.10;4.60;;;;;;;8.28;85.38;100052.94;5028247;28;20049;-90
2022/01/03 00:32:31;;;;;;;5.82;4.95;;;;;;;8.29;85.29;100052.06;5009810;28;20033;-90
2022/01/03 00:34:58;;;;;;;5.18;4.35;;;;;;;8.30;85.07;100052.94;5027695;28;20108;-90
2022/01/03 00:37:25;;;;;;;5.00;4.50;;;;;;;8.28;84.98;100047.69;5005843;28;20514;-90
2022/01/03 00:39:51;;;;;;;4.80;4.05;;;;;;;8.28;85.19;100031.94;5016440;28;20447;-90
2022/01/03 00:42:18;;;;;;;4.95;4.10;;;;;;;8.28;85.28;100031.94;5010023;28;20025;-90
2022/01/03 00:44:46;;;;;;;4.72;4.03;;;;;;;8.28;84.98;100024.03;5010849;28;20028;-89
2022/01/03 00:47:11;;;;;;;4.68;4.28;;;;;;;8.29;84.85;100036.28;5012895;28;20460;-90
2022/01/03 00:49:40;;;;;;;4.32;3.92;;;;;;;8.27;85.05;100030.16;5019016;28;20033;-90
2022/01/03 00:52:06;;;;;;;5.07;4.05;;;;;;;8.28;84.79;100034.56;5011031;28;20190;-90
2022/01/03 00:54:32;;;;;;;4.20;3.90;;;;;;;8.29;84.73;100036.28;5011601;28;20101;-89
2022/01/03 00:57:03;;;;;;;4.13;3.72;;;;;;;8.25;85.08;100031.06;5013480;28;20044;-90
2022/01/03 00:59:38;;;;;;;4.53;3.67;;;;;;;8.20;84.88;100024.09;5028626;28;20079;-90
2022/01/03 01:02:06;;;;;;;4.15;3.75;;;;;;;8.22;84.85;100047.75;5016803;28;20025;-90
2022/01/03 01:04:32;;;;;;;3.97;3.55;;;;;;;8.29;84.90;100059.94;5010758;28;20025;-90
2022/01/03 01:06:58;;;;;;;3.75;3.45;;;;;;;8.26;85.02;100070.47;5005316;28;20479;-89
2022/01/03 01:09:26;;;;;;;5.55;3.60;;;;;;;8.19;84.57;100060.91;5011510;28;20405;-90
2022/01/03 01:11:54;;;;;;;4.38;4.00;;;;;;;8.29;84.87;100090.59;5013036;28;20029;-90
2022/01/03 01:14:21;;;;;;;3.85;3.55;;;;;;;8.23;84.75;100086.25;5011773;28;20021;-90
2022/01/03 01:16:47;;;;;;;4.10;3.80;;;;;;;8.25;84.65;100099.38;5009335;28;20502;-90
2022/01/03 01:19:13;;;;;;;4.00;3.45;;;;;;;8.24;84.67;100102.91;5012442;28;20028;-90
2022/01/03 01:21:39;;;;;;;3.50;3.20;;;;;;;8.27;84.77;100106.34;5012493;28;20152;-90
2022/01/03 01:24:05;;;;;;;3.10;2.80;;;;;;;8.26;84.96;100109.00;5013183;28;20030;-90
2022/01/03 01:29:15;;;;;;;3.72;3.42;;;;;;;8.25;84.72;100099.38;5027371;28;20090;-89
2022/01/03 01:31:48;;;;;;;3.20;3.00;;;;;;;8.25;85.07;100083.63;5024203;28;20060;-90
2022/01/03 01:34:27;;;;;;;3.58;3.28;;;;;;;8.22;84.89;100076.63;5010786;28;20113;-90
2022/01/03 01:36:55;;;;;;;3.38;2.97;;;;;;;8.21;84.53;100088.03;5010427;28;20458;-90
2022/01/03 01:39:24;;;;;;;2.95;2.67;;;;;;;8.23;84.71;100091.50;5011030;28;20018;-90
2022/01/03 01:41:55;;;;;;;3.25;2.95;;;;;;;8.25;84.62;100095.00;5011974;28;20307;-90
2022/01/03 01:44:22;;;;;;;3.42;3.22;;;;;;;8.24;84.88;100095.91;5014740;28;20365;-90
2022/01/03 01:46:54;;;;;;;3.30;3.03;;;;;;;8.22;84.36;100087.16;5016370;28;20033;-89
2022/01/03 01:49:24;;;;;;;3.10;2.90;;;;;;;8.21;84.48;100094.13;5030930;28;20017;-90
2022/01/03 01:51:58;;;;;;;2.90;2.70;;;;;;;8.24;84.69;100093.28;5017428;28;20021;-90
2022/01/03 01:54:32;;;;;;;2.85;2.53;;;;;;;8.20;84.81;100081.91;5014186;28;20550;-90
2022/01/03 01:57:09;;;;;;;2.72;2.53;;;;;;;8.24;84.68;100082.75;5031134;28;20116;-90
2022/01/03 01:59:40;;;;;;;2.90;2.67;;;;;;;8.22;84.79;100076.63;5014342;28;20033;-90
2022/01/03 02:02:09;;;;;;;2.60;2.40;;;;;;;8.21;84.82;100069.66;5011217;28;20115;-90
2022/01/03 02:04:46;;;;;;;2.67;2.30;;;;;;;8.23;84.75;100067.00;5031027;28;20479;-90
2022/01/03 02:07:40;;;;;;;2.75;2.30;;;;;;;8.23;84.56;100059.97;5042677;28;20029;-91
2022/01/03 02:10:10;;;;;;;2.80;2.60;;;;;;;8.20;84.70;100057.38;5029797;28;20025;-89
2022/01/03 02:12:46;;;;;;;3.17;2.60;;;;;;;8.18;84.71;100048.66;5013736;28;20064;-89
2022/01/03 02:15:14;;;;;;;3.58;2.30;;;;;;;8.20;84.79;100049.50;5021185;28;20029;-90
2022/01/03 02:17:41;;;;;;;2.42;2.22;;;;;;;8.22;84.60;100060.88;5025328;28;20387;-90
2022/01/03 02:20:09;;;;;;;2.63;2.42;;;;;;;8.20;84.76;100057.38;5014635;28;20455;-90
2022/01/03 02:22:40;;;;;;;2.80;2.60;;;;;;;8.18;84.63;100067.03;5028871;28;20474;-90
2022/01/03 02:25:07;;;;;;;3.63;2.45;;;;;;;8.20;84.65;100066.13;5016042;28;20072;-90
2022/01/03 02:27:33;;;;;;;2.90;2.28;;;;;;;8.23;84.71;100074.88;5013751;28;20045;-90
2022/01/03 02:29:59;;;;;;;2.15;2.03;;;;;;;8.11;84.67;100049.59;5009612;28;20135;-90
2022/01/03 02:32:24;;;;;;;2.30;2.10;;;;;;;8.20;84.87;100073.13;5012158;28;20022;-90
2022/01/03 02:34:50;;;;;;;2.20;2.00;;;;;;;8.14;84.79;100062.69;5020559;28;20021;-90
2022/01/03 02:37:16;;;;;;;2.30;2.10;;;;;;;8.21;84.64;100083.63;5011743;28;20459;-90
2022/01/03 02:39:43;;;;;;;2.40;2.00;;;;;;;8.20;84.70;100078.38;5026429;28;20022;-90
2022/01/03 02:42:08;;;;;;;2.25;2.08;;;;;;;8.20;84.66;100088.91;5009923;28;20217;-89
2022/01/03 02:44:35;;;;;;;2.15;1.95;;;;;;;8.20;84.69;100075.75;5015823;28;20045;-89
2022/01/03 02:47:01;;;;;;;1.92;1.83;;;;;;;8.16;84.81;100076.69;5011552;28;20053;-89
2022/01/03 02:49:26;;;;;;;2.17;2.00;;;;;;;8.15;84.74;100077.56;5014165;28;20030;-90
2022/01/03 02:51:52;;;;;;;1.92;1.83;;;;;;;8.18;84.68;100078.44;5012307;28;20129;-89
2022/01/03 02:54:18;;;;;;;1.80;1.70;;;;;;;8.15;84.80;100078.44;5014066;28;20040;-90
2022/01/03 02:56:43;;;;;;;1.88;1.77;;;;;;;8.20;84.61;100070.50;5014508;28;20108;-89
2022/01/03 02:59:15;;;;;;;2.00;1.77;;;;;;;8.15;84.55;100067.94;5013091;28;20025;-90
2022/01/03 03:01:45;;;;;;;2.47;1.90;;;;;;;8.19;84.67;100074.03;5014452;28;20039;-90
2022/01/03 03:04:11;;;;;;;2.10;1.90;;;;;;;8.18;84.69;100078.44;5014173;28;20033;-90
2022/01/03 03:06:37;;;;;;;1.95;1.80;;;;;;;8.06;84.84;100054.88;5006251;28;20533;-89
2022/01/03 03:09:05;;;;;;;1.80;1.70;;;;;;;8.06;84.60;100061.00;5012033;28;20061;-89
2022/01/03 03:11:35;;;;;;;2.22;2.03;;;;;;;8.18;84.68;100088.06;5027466;28;20065;-89
2022/01/03 03:14:01;;;;;;;2.03;1.83;;;;;;;8.16;84.63;100090.69;5013593;28;20120;-89
2022/01/03 03:16:27;;;;;;;2.03;1.85;;;;;;;8.18;84.68;100099.44;5013906;28;20032;-90
2022/01/03 03:18:53;;;;;;;1.80;1.70;;;;;;;8.18;84.72;100102.06;5013022;28;20022;-90
2022/01/03 03:21:19;;;;;;;2.40;1.85;;;;;;;8.13;84.51;100095.13;5006308;28;20379;-89
2022/01/03 03:23:44;;;;;;;1.75;1.63;;;;;;;8.16;84.47;100100.31;5028655;28;20033;-89
2022/01/03 03:26:11;;;;;;;2.95;2.20;;;;;;;8.14;84.26;100102.09;5016973;28;20025;-89
2022/01/03 03:28:36;;;;;;;1.80;1.70;;;;;;;8.14;84.46;100104.72;5019889;28;20018;-89
2022/01/03 03:31:02;;;;;;;2.33;2.13;;;;;;;8.15;84.60;100107.34;5014076;28;20053;-89
2022/01/03 03:33:32;;;;;;;2.15;1.95;;;;;;;8.17;84.37;100112.59;5011624;28;20025;-90
2022/01/03 03:35:59;;;;;;;3.50;2.20;;;;;;;8.17;84.55;100112.59;5010437;28;20068;-89
2022/01/03 03:38:26;;;;;;;2.58;2.13;;;;;;;8.15;84.59;100114.34;5014424;28;20032;-89
2022/01/03 03:40:53;;;;;;;2.28;2.08;;;;;;;8.12;84.36;100115.25;5013259;28;20029;-90
2022/01/03 03:43:19;;;;;;;2.78;2.50;;;;;;;8.15;84.65;100128.38;5028146;28;20022;-90
2022/01/03 03:45:46;;;;;;;2.20;2.00;;;;;;;8.15;84.53;100122.22;5011142;28;20036;-89
2022/01/03 03:48:12;;;;;;;1.95;1.85;;;;;;;8.16;84.51;100131.84;5012492;28;20053;-90
2022/01/03 03:50:38;;;;;;;2.03;1.90;;;;;;;8.16;84.46;100129.22;5014163;28;20543;-90
2022/01/03 03:53:04;;;;;;;2.80;2.60;;;;;;;8.07;84.43;100119.69;5013450;28;20032;-89
2022/01/03 03:55:31;;;;;;;2.85;2.10;;;;;;;8.13;84.23;100122.22;5013106;28;20025;-89
2022/01/03 03:57:58;;;;;;;2.20;2.00;;;;;;;8.14;84.34;100128.38;5008475;28;20304;-89
2022/01/03 04:00:24;;;;;;;2.20;2.00;;;;;;;8.13;84.43;100127.50;5025004;28;20522;-90
2022/01/03 04:02:50;;;;;;;2.33;2.13;;;;;;;8.06;84.58;100113.53;5010207;28;20052;-89
2022/01/03 04:05:16;;;;;;;3.17;2.50;;;;;;;8.06;84.65;100121.41;5013335;28;20471;-90
2022/01/03 04:07:42;;;;;;;1.85;1.75;;;;;;;8.11;84.14;100123.13;5012068;28;20080;-90
2022/01/03 04:10:10;;;;;;;2.40;2.20;;;;;;;8.11;84.48;100142.41;5009363;28;20459;-89
2022/01/03 04:12:35;;;;;;;2.22;2.05;;;;;;;8.12;84.20;100138.00;5025671;28;20075;-89
2022/01/03 04:15:01;;;;;;;2.47;2.28;;;;;;;8.09;84.43;100150.28;5011211;28;20041;-90
2022/01/03 04:17:27;;;;;;;3.97;2.60;;;;;;;8.09;84.30;100142.41;5025358;28;20475;-90
2022/01/03 04:19:53;;;;;;;2.65;2.28;;;;;;;8.12;84.68;100156.38;5012870;28;20032;-89
2022/01/03 04:22:18;;;;;;;4.15;2.40;;;;;;;8.12;84.58;100145.88;5010872;28;20025;-90
2022/01/03 04:24:44;;;;;;;3.40;2.38;;;;;;;8.08;84.40;100153.78;5013726;28;20089;-90
2022/01/03 04:27:10;;;;;;;3.95;2.28;;;;;;;8.12;84.48;100164.28;5012470;28;20025;-90
2022/01/03 04:29:35;;;;;;;3.55;2.30;;;;;;;8.12;84.08;100159.03;5011942;28;20245;-89
2022/01/03 04:32:01;;;;;;;2.40;2.20;;;;;;;8.03;84.28;100146.81;5013147;28;20025;-89
2022/01/03 04:34:27;;;;;;;3.13;2.80;;;;;;;8.11;84.18;100157.28;5025270;28;20025;-90
2022/01/03 04:36:53;;;;;;;2.42;2.17;;;;;;;8.07;84.29;100149.41;5010758;28;20099;-89
2022/01/03 04:39:18;;;;;;;2.55;2.35;;;;;;;8.12;84.19;100167.78;5010645;28;20161;-90
2022/01/03 04:41:44;;;;;;;4.43;2.58;;;;;;;8.09;84.29;100165.16;5017555;28;20056;-89
2022/01/03 04:44:10;;;;;;;2.50;2.25;;;;;;;8.07;84.34;100166.94;5014368;28;20059;-90
2022/01/03 04:46:36;;;;;;;2.88;2.50;;;;;;;8.06;84.29;100163.44;5009507;28;20388;-89
2022/01/03 04:49:04;;;;;;;2.95;2.42;;;;;;;8.09;84.25;100184.44;5026546;28;20108;-89
2022/01/03 04:51:31;;;;;;;2.88;2.20;;;;;;;8.11;84.29;100186.19;5011726;28;20061;-90
2022/01/03 04:53:57;;;;;;;3.38;3.08;;;;;;;8.05;84.32;100177.47;5009572;28;20045;-90
2022/01/03 04:56:22;;;;;;;3.63;2.75;;;;;;;8.01;84.27;100164.34;5013274;28;20119;-89
2022/01/03 04:58:48;;;;;;;3.03;2.83;;;;;;;8.06;84.51;100175.69;5011234;28;20034;-90
2022/01/03 05:01:14;;;;;;;2.70;2.28;;;;;;;8.11;84.37;100191.44;5010301;28;20026;-90
2022/01/03 05:03:40;;;;;;;4.25;3.15;;;;;;;8.06;84.37;100188.81;5011707;28;20507;-90
2022/01/03 05:06:05;;;;;;;2.78;2.58;;;;;;;8.07;84.15;100191.44;5013209;28;20535;-90
2022/01/03 05:08:33;;;;;;;3.60;3.17;;;;;;;8.02;84.18;100188.00;5011268;28;20030;-90
2022/01/03 05:11:00;;;;;;;2.78;2.47;;;;;;;8.08;84.18;100201.06;5012658;28;20072;-89
2022/01/03 05:13:27;;;;;;;3.42;2.60;;;;;;;8.05;84.08;100195.84;5013172;28;20124;-90
2022/01/03 05:15:53;;;;;;;3.50;3.20;;;;;;;8.06;84.03;100197.59;5013646;28;20041;-89
2022/01/03 05:18:19;;;;;;;3.53;3.22;;;;;;;8.08;84.28;100205.47;5027487;28;20030;-89
2022/01/03 05:20:45;;;;;;;3.28;2.97;;;;;;;8.08;84.03;100205.47;5014014;28;20080;-88
2022/01/03 05:23:10;;;;;;;3.40;3.10;;;;;;;8.05;84.64;100203.72;5015642;28;20021;-89
2022/01/03 05:25:36;;;;;;;3.67;3.35;;;;;;;8.07;84.04;100212.47;5016538;28;20040;-90
2022/01/03 05:28:02;;;;;;;3.10;2.90;;;;;;;8.03;84.17;100216.00;5011635;28;20748;-90
2022/01/03 05:30:28;;;;;;;4.10;3.47;;;;;;;8.03;84.33;100207.22;5028525;28;20058;-90
2022/01/03 05:32:54;;;;;;;3.28;2.95;;;;;;;8.07;84.10;100228.22;5014078;28;20069;-90
2022/01/03 05:35:19;;;;;;;3.72;3.08;;;;;;;8.04;83.85;100217.72;5015992;28;20072;-90
2022/01/03 05:37:45;;;;;;;3.42;3.13;;;;;;;8.06;84.07;100215.09;5030184;28;20041;-89
2022/01/03 05:40:11;;;;;;;3.78;3.47;;;;;;;8.03;84.26;100208.09;5015291;28;20172;-90
2022/01/03 05:42:37;;;;;;;4.00;3.30;;;;;;;8.02;84.15;100213.38;5013667;28;20085;-90
2022/01/03 05:45:04;;;;;;;3.80;3.20;;;;;;;8.03;84.01;100215.09;5016907;28;20533;-90
2022/01/03 05:47:30;;;;;;;3.75;3.33;;;;;;;8.06;84.10;100231.72;5027483;28;20123;-90
2022/01/03 05:49:57;;;;;;;3.35;3.13;;;;;;;8.05;84.20;100222.13;5015633;28;20423;-90
2022/01/03 05:52:22;;;;;;;4.25;3.85;;;;;;;7.98;84.08;100217.78;5033700;28;20433;-89
2022/01/03 05:54:48;;;;;;;4.40;3.40;;;;;;;8.04;84.08;100219.50;5038195;28;20033;-90
2022/01/03 05:57:14;;;;;;;3.88;3.40;;;;;;;8.02;84.14;100231.75;5014287;28;20032;-90
2022/01/03 05:59:40;;;;;;;4.22;3.80;;;;;;;8.03;83.87;100221.25;5032490;28;20079;-90
2022/01/03 06:02:06;;;;;;;4.38;3.97;;;;;;;8.01;84.09;100228.28;5011982;28;20128;-90
2022/01/03 06:04:53;;;;;;;4.75;3.65;;;;;;;8.01;84.04;100227.38;5013225;28;20025;-90
2022/01/03 06:07:19;;;;;;;3.92;3.53;;;;;;;8.03;83.82;100231.75;5006214;28;20082;-90
2022/01/03 06:09:45;;;;;;;3.92;3.28;;;;;;;8.00;83.86;100226.50;5013433;28;20057;-90
2022/01/03 06:12:11;;;;;;;4.63;3.92;;;;;;;8.02;84.11;100232.63;5012402;28;20418;-90
2022/01/03 06:14:37;;;;;;;5.03;4.00;;;;;;;8.01;83.95;100227.38;5015431;28;20036;-90
2022/01/03 06:17:05;;;;;;;4.13;3.67;;;;;;;7.99;84.01;100230.03;5014188;28;20063;-90
2022/01/03 06:19:32;;;;;;;3.75;3.42;;;;;;;7.94;83.89;100224.78;5030796;28;20033;-90
2022/01/03 06:21:58;;;;;;;4.57;3.50;;;;;;;8.01;83.95;100225.66;5010641;28;20522;-89
2022/01/03 06:24:24;;;;;;;4.13;3.72;;;;;;;7.99;83.79;100223.88;5014112;28;20124;-90
2022/01/03 06:26:51;;;;;;;3.95;3.65;;;;;;;8.01;83.93;100236.16;5012471;28;20029;-90
2022/01/03 06:29:18;;;;;;;3.58;3.28;;;;;;;7.95;83.97;100225.66;5013712;28;20029;-90
2022/01/03 06:31:45;;;;;;;3.63;3.33;;;;;;;8.02;83.91;100229.13;5013407;28;20076;-90
2022/01/03 06:34:11;;;;;;;4.28;3.90;;;;;;;7.94;83.95;100221.31;5014238;28;20033;-90
2022/01/03 06:36:37;;;;;;;4.53;3.70;;;;;;;7.91;84.06;100223.94;5026895;28;20029;-89
2022/01/03 06:39:05;;;;;;;4.70;3.67;;;;;;;7.94;84.08;100231.81;5011999;28;20036;-90
2022/01/03 06:41:30;;;;;;;4.35;3.63;;;;;;;7.88;84.06;100216.06;5013926;28;20506;-89
2022/01/03 06:43:56;;;;;;;3.65;3.30;;;;;;;7.88;84.06;100232.72;5013822;28;20033;-90
2022/01/03 06:46:22;;;;;;;5.85;3.53;;;;;;;7.99;83.80;100245.78;5013995;28;20497;-90
2022/01/03 06:48:49;;;;;;;3.80;3.20;;;;;;;7.94;83.79;100242.31;5013977;28;20052;-90
2022/01/03 06:51:17;;;;;;;4.30;3.90;;;;;;;7.82;84.08;100217.88;5012691;28;20037;-89
2022/01/03 06:53:44;;;;;;;3.65;3.35;;;;;;;7.98;84.08;100251.91;5009922;28;20133;-90
2022/01/03 06:56:10;;;;;;;3.90;3.08;;;;;;;7.91;83.81;100247.56;5014569;28;20463;-90
2022/01/03 06:58:37;;;;;;;3.80;3.40;;;;;;;7.94;83.92;100261.56;5010893;28;20076;-90
2022/01/03 07:01:03;;;;;;;4.65;3.22;;;;;;;7.99;83.96;100268.53;5013720;28;20536;-89
2022/01/03 07:03:29;;;;;;;4.35;3.20;;;;;;;7.88;83.97;100253.72;5011300;28;20030;-90
2022/01/03 07:05:54;;;;;;;3.50;3.20;;;;;;;7.92;83.66;100265.06;5015940;28;20025;-89
2022/01/03 07:08:21;;;;;;;4.30;3.13;;;;;;;7.96;83.91;100272.06;5021712;28;20032;-90
2022/01/03 07:10:48;;;;;;;4.07;3.60;;;;;;;7.94;83.68;100279.06;5028327;28;20594;-90
2022/01/03 07:13:13;;;;;;;3.40;2.97;;;;;;;7.96;83.90;100282.56;5013083;28;20044;-90
2022/01/03 07:21:07;;;;;;;4.55;3.03;;;;;;;7.94;83.74;100289.59;5023517;28;20084;-90
2022/01/03 07:23:34;;;;;;;3.63;3.00;;;;;;;7.92;84.03;100301.84;5010016;28;20021;-90
2022/01/03 07:26:00;;;;;;;4.57;3.30;;;;;;;7.94;84.07;100300.09;5012541;28;20393;-90
2022/01/03 07:28:25;;;;;;;3.67;3.08;;;;;;;7.94;83.69;100305.34;5010351;28;20148;-89
2022/01/03 07:30:51;;;;;;;3.92;2.75;;;;;;;7.91;83.97;100300.09;5027044;28;20029;-90
2022/01/03 07:33:17;;;;;;;4.10;2.92;;;;;;;7.87;83.88;100298.38;5027170;28;20102;-90
2022/01/03 07:35:43;;;;;;;4.13;2.85;;;;;;;7.87;83.90;100291.34;5030572;28;20029;-90
2022/01/03 07:38:08;;;;;;;5.28;3.63;;;;;;;7.93;83.83;100308.81;5013109;28;20467;-90
2022/01/03 07:40:34;;;;;;;4.65;2.53;;;;;;;7.93;83.69;100308.81;5011265;28;20396;-90
2022/01/03 07:43:00;;;;;;;3.53;2.72;;;;;;;7.93;83.94;100314.06;5009355;28;20033;-90
2022/01/03 07:45:26;;;;;;;4.00;2.85;;;;;;;7.87;83.97;100295.75;5012380;28;20748;-90
2022/01/03 07:47:52;;;;;;;4.40;3.05;;;;;;;7.89;84.05;100302.72;5013980;28;20029;-90
2022/01/03 07:50:17;;;;;;;3.70;2.70;;;;;;;7.83;83.56;100301.00;5030045;28;20074;-90
2022/01/03 07:52:43;;;;;;;3.05;2.70;;;;;;;7.89;83.68;100304.47;5009970;28;20290;-89
2022/01/03 07:55:11;;;;;;;4.57;3.03;;;;;;;7.92;83.79;100315.84;5011969;28;20033;-90
2022/01/03 07:57:38;;;;;;;3.95;2.95;;;;;;;7.88;83.57;100300.09;5013275;28;21269;-90
2022/01/03 08:00:06;;;;;;;3.83;2.60;;;;;;;7.91;83.62;100302.72;5013806;28;20025;-90
2022/01/03 08:02:31;;;;;;;3.90;3.53;;;;;;;7.76;83.53;100283.50;5012253;28;20060;-90
2022/01/03 08:04:57;;;;;;;2.63;2.38;;;;;;;7.89;83.76;100301.84;5010709;28;20075;-90
2022/01/03 08:07:23;;;;;;;5.90;2.85;;;;;;;7.87;83.72;100303.63;5012764;28;20034;-89
2022/01/03 08:09:49;;;;;;;5.55;2.72;;;;;;;7.91;83.66;100318.47;5011879;28;20109;-90
2022/01/03 08:12:16;;;;;;;6.13;2.42;;;;;;;7.85;83.41;100313.22;5013006;28;20087;-90
2022/01/03 08:14:42;;;;;;;3.15;2.35;;;;;;;7.90;83.48;100314.97;5015236;28;20080;-90
2022/01/03 08:17:08;;;;;;;5.10;3.22;;;;;;;7.85;83.53;100310.59;5016816;28;20033;-89
2022/01/03 08:19:34;;;;;;;3.97;2.80;;;;;;;7.91;83.56;100321.94;5021155;28;20490;-89
2022/01/03 08:22:00;;;;;;;4.65;2.55;;;;;;;7.78;83.12;100291.38;5012495;28;20045;-90
2022/01/03 08:24:26;;;;;;;4.78;3.28;;;;;;;7.86;83.56;100307.97;5010329;28;20033;-90
2022/01/03 08:26:52;;;;;;;6.40;2.50;;;;;;;7.91;83.23;100307.97;5028346;28;20037;-90
2022/01/03 08:29:18;;;;;;;3.45;2.58;;;;;;;7.93;83.13;100314.06;5010596;28;20025;-90
2022/01/03 08:31:43;;;;;;;4.72;2.83;;;;;;;7.92;83.19;100317.59;5012553;28;20029;-90
2022/01/03 08:34:09;;;;;;;2.75;2.20;;;;;;;7.89;83.43;100313.22;5011028;28;20037;-89
2022/01/03 08:36:35;;;;;;;5.47;3.03;;;;;;;7.87;83.24;100320.22;5012382;28;20029;-91
2022/01/03 08:39:01;;;;;;;4.90;2.80;;;;;;;7.86;83.24;100314.97;5013339;28;20033;-90
2022/01/03 08:41:26;;;;;;;3.90;2.50;;;;;;;7.77;83.20;100298.38;5010413;28;20041;-90
2022/01/03 08:43:53;;;;;;;4.70;2.35;;;;;;;7.85;83.27;100327.25;5009048;28;20037;-90
2022/01/03 08:46:19;;;;;;;5.70;3.42;;;;;;;7.86;83.39;100331.63;5013353;28;20158;-89
2022/01/03 08:48:45;;;;;;;2.90;2.50;;;;;;;7.89;83.33;100333.34;5012582;28;20777;-90
2022/01/03 08:51:11;;;;;;;4.38;2.90;;;;;;;7.89;83.15;100336.88;5012964;28;20053;-91
2022/01/03 08:53:37;;;;;;;4.38;2.63;;;;;;;7.90;82.98;100332.50;5027985;28;20110;-90
2022/01/03 08:56:03;;;;;;;4.88;2.50;;;;;;;7.91;82.92;100339.47;5009168;28;20029;-89
2022/01/03 08:58:29;;;;;;;4.97;2.65;;;;;;;7.90;83.19;100343.00;5011367;28;20034;-90
2022/01/03 09:00:55;;;;;;;3.63;2.17;;;;;;;7.90;83.13;100335.13;5012703;28;20048;-89
2022/01/03 09:03:21;;;;;;;3.50;2.22;;;;;;;7.94;83.24;100350.84;5012670;28;20030;-90
2022/01/03 09:05:47;;;;;;;3.60;2.15;;;;;;;7.96;83.18;100340.34;5012030;28;20091;-90
2022/01/03 09:08:13;;;;;;;4.22;2.95;;;;;;;7.92;83.12;100334.22;5016001;28;20491;-91
2022/01/03 09:10:39;;;;;;;4.43;2.58;;;;;;;7.93;82.96;100335.97;5028297;28;20029;-90
2022/01/03 09:13:05;;;;;;;3.60;2.30;;;;;;;7.97;83.17;100342.06;5008828;28;20212;-89
2022/01/03 09:15:31;;;;;;;7.20;2.42;;;;;;;7.93;83.17;100342.97;5010861;28;20034;-88
2022/01/03 09:17:57;;;;;;;4.88;2.83;;;;;;;7.92;83.17;100333.34;5016088;28;20025;-89
2022/01/03 09:20:23;;;;;;;6.68;2.75;;;;;;;7.97;82.98;100349.94;5015355;28;20017;-89
2022/01/03 09:22:52;;;;;;;6.03;2.40;;;;;;;7.93;82.98;100346.47;5015661;28;20091;-89
2022/01/03 09:30:31;;;;;;;4.93;2.63;;;;;;;7.99;83.07;100345.56;5025276;28;20043;-91
2022/01/03 09:32:57;;;;;;;6.88;2.90;;;;;;;7.96;83.01;100343.84;5025824;28;20033;-90
2022/01/03 09:35:23;;;;;;;5.35;2.60;;;;;;;7.95;82.96;100335.97;5014172;28;20088;-91
2022/01/03 09:37:49;;;;;;;4.05;2.60;;;;;;;7.96;83.14;100335.06;5014882;28;20033;-91
2022/01/03 09:40:15;;;;;;;5.03;2.90;;;;;;;7.92;82.99;100330.72;5013819;28;20025;-90
2022/01/03 09:42:43;;;;;;;7.20;2.53;;;;;;;7.98;83.04;100333.34;5010272;28;20057;-91
2022/01/03 09:45:15;;;;;;;5.20;2.80;;;;;;;7.96;83.05;100335.06;5020447;28;20036;-90
2022/01/03 09:47:44;;;;;;;4.20;3.05;;;;;;;7.89;83.01;100307.97;5009482;28;20061;-91
2022/01/03 09:50:12;;;;;;;4.00;2.53;;;;;;;7.93;83.23;100317.59;5012687;28;20032;-90
2022/01/03 09:52:40;;;;;;;2.75;2.25;;;;;;;8.01;83.08;100338.59;5031165;28;20424;-89
2022/01/03 09:55:17;;;;;;;4.85;2.70;;;;;;;7.99;82.93;100332.44;5015626;28;20047;-90
2022/01/03 09:57:45;;;;;;;3.30;2.80;;;;;;;7.95;83.09;100322.84;5011248;28;20052;-91
2022/01/03 10:00:22;;;;;;;3.88;2.58;;;;;;;8.03;83.01;100336.81;5010320;28;20030;-91
2022/01/03 10:02:52;;;;;;;3.97;2.45;;;;;;;8.07;83.02;100342.94;5013433;28;20091;-91
2022/01/03 10:05:18;;;;;;;6.65;2.72;;;;;;;8.00;83.09;100334.19;5016132;28;20072;-91
2022/01/03 10:07:44;;;;;;;5.38;2.83;;;;;;;8.00;83.30;100323.69;5019337;28;20046;-91
2022/01/03 10:10:11;;;;;;;2.67;2.30;;;;;;;7.96;83.01;100314.06;5020742;28;20064;-91
2022/01/03 10:12:37;;;;;;;4.28;2.42;;;;;;;7.94;83.14;100302.72;5012539;28;20033;-88
2022/01/03 10:15:05;;;;;;;4.70;2.65;;;;;;;8.02;83.05;100319.31;5021811;28;20060;-90
2022/01/03 10:17:41;;;;;;;5.60;2.60;;;;;;;8.07;83.24;100330.66;5031785;28;20087;-91
2022/01/03 10:20:12;;;;;;;3.78;2.78;;;;;;;8.09;83.09;100320.16;5014626;28;20123;-90
2022/01/03 10:22:38;;;;;;;;;;;;;;;8.09;83.06;100313.16;5029796;28;20025;-91
2022/01/03 10:25:14;;;;;;;5.03;2.83;;;;;;;8.07;83.16;100312.28;5013027;28;19919;-91
2022/01/03 10:27:48;;;;;;;4.63;2.55;;;;;;;8.09;83.09;100310.53;5027688;28;20334;-91
2022/01/03 10:30:54;;;;;;;5.22;2.70;;;;;;;8.05;83.13;100303.53;5012568;28;20025;-91
2022/01/03 10:33:24;;;;;;;4.38;2.83;;;;;;;8.12;83.30;100308.75;5024085;28;20033;-91
2022/01/03 10:35:53;;;;;;;6.63;2.10;;;;;;;8.07;83.41;100303.53;5015370;28;20108;-90
2022/01/03 10:38:44;;;;;;;4.53;2.10;;;;;;;8.09;83.26;100299.13;5028538;28;20033;-90
2022/01/03 10:41:22;;;;;;;4.47;2.65;;;;;;;8.12;83.23;100295.63;5013484;28;20112;-90
2022/01/03 10:43:53;;;;;;;5.88;2.40;;;;;;;8.12;83.20;100296.50;5028969;28;20039;-91
2022/01/03 10:46:28;;;;;;;4.43;2.47;;;;;;;8.13;83.25;100297.38;5013797;28;20056;-90
2022/01/03 10:49:05;;;;;;;5.13;2.60;;;;;;;8.12;83.12;100304.38;5030126;28;20029;-90
2022/01/03 10:51:30;;;;;;;4.32;2.75;;;;;;;8.15;83.35;100300.84;5022061;28;20055;-91
2022/01/03 10:53:57;;;;;;;5.03;2.40;;;;;;;8.15;83.10;100306.09;5013261;28;20467;-91
2022/01/03 10:56:44;;;;;;;2.78;1.98;;;;;;;8.13;83.13;100292.13;5031092;28;20446;-91
2022/01/03 10:59:15;;;;;;;5.53;2.58;;;;;;;8.18;83.01;100299.09;5030357;28;20031;-91
2022/01/03 11:01:43;;;;;;;2.17;1.98;;;;;;;8.17;82.99;100296.47;5030069;28;20498;-91
2022/01/03 11:04:13;;;;;;;4.32;2.30;;;;;;;8.17;82.88;100297.34;5015686;28;20029;-91
2022/01/03 11:11:55;;;;;;;4.75;2.08;;;;;;;8.17;83.19;100285.97;5028317;28;20169;-90
2022/01/03 11:14:33;;;;;;;3.40;1.60;;;;;;;8.15;83.06;100288.59;5014735;28;20028;-91
2022/01/03 11:17:27;;;;;;;3.85;2.00;;;;;;;8.18;83.04;100296.47;5011702;28;20029;-91
2022/01/03 11:19:59;;;;;;;5.97;2.55;;;;;;;8.10;82.84;100266.72;5015792;28;20032;-93
2022/01/03 11:22:40;;;;;;;4.25;1.90;;;;;;;8.18;82.55;100287.72;5012063;28;20060;-91
2022/01/03 11:25:07;;;;;;;3.08;2.28;;;;;;;8.16;82.55;100277.22;5010627;28;20032;-91
2022/01/03 11:27:38;;;;;;;4.97;2.17;;;;;;;8.14;82.76;100257.09;5013486;28;20037;-90
2022/01/03 11:30:06;;;;;;;5.15;2.38;;;;;;;8.18;82.86;100274.56;5020957;28;20037;-91
2022/01/03 11:32:36;;;;;;;6.10;1.70;;;;;;;8.13;82.85;100263.22;5013145;28;20034;-91
2022/01/03 11:35:02;;;;;;;5.47;2.45;;;;;;;8.17;82.80;100257.06;5016429;28;20021;-91
2022/01/03 11:37:32;;;;;;;5.63;2.40;;;;;;;8.16;82.81;100257.94;5015152;28;20075;-91
2022/01/03 11:40:04;;;;;;;4.78;1.90;;;;;;;8.17;82.61;100259.69;5012423;28;20076;-91
2022/01/03 11:42:32;;;;;;;4.07;1.65;;;;;;;8.20;82.74;100267.53;5010422;28;20029;-91
2022/01/03 11:44:59;;;;;;;3.78;1.92;;;;;;;8.18;82.95;100261.44;5024940;28;20119;-90
2022/01/03 11:47:27;;;;;;;2.50;1.73;;;;;;;8.17;82.87;100254.44;5011792;28;20029;-91
2022/01/03 11:49:53;;;;;;;4.57;2.78;;;;;;;8.16;82.87;100250.94;5015535;28;20037;-91
2022/01/03 11:52:19;;;;;;;2.13;1.85;;;;;;;8.15;82.79;100245.69;5028374;28;20021;-91
2022/01/03 11:54:46;;;;;;;2.00;1.60;;;;;;;8.11;82.87;100229.09;5014711;28;20040;-92